createdAt,value
2023-09-11T00:00:13.828Z,101469.56
2023-09-11T00:02:40.550Z,101471.44
2023-09-11T00:05:07.491Z,101463.66
2023-09-11T00:07:34.050Z,101469.09
2023-09-11T00:10:00.683Z,101461.97
2023-09-11T00:12:27.445Z,101459.09
2023-09-11T00:14:56.631Z,101460.66
2023-09-11T00:17:23.362Z,101461.00
2023-09-11T00:19:50.062Z,101461.06
2023-09-11T00:22:16.645Z,101461.91
2023-09-11T00:24:43.120Z,101456.97
2023-09-11T00:27:12.063Z,101447.16
2023-09-11T00:29:39.053Z,101444.59
2023-09-11T00:32:06.037Z,101446.63
2023-09-11T00:34:32.691Z,101450.38
2023-09-11T00:36:59.161Z,101440.72
2023-09-11T00:39:25.915Z,101441.06
2023-09-11T00:41:52.477Z,101444.81
2023-09-11T00:44:19.162Z,101444.97
2023-09-11T00:46:46.317Z,101447.03
2023-09-11T00:49:12.998Z,101437.19
2023-09-11T00:51:39.827Z,101442.97
2023-09-11T00:54:06.970Z,101440.44
2023-09-11T00:56:33.774Z,101431.44
2023-09-11T00:59:00.540Z,101434.34
2023-09-11T01:01:27.622Z,101441.63
2023-09-11T01:03:54.324Z,101434.69
2023-09-11T01:06:22.500Z,101434.00
2023-09-11T01:08:49.242Z,101435.72
2023-09-11T01:11:16.111Z,101440.31
2023-09-11T01:13:42.905Z,101432.38
2023-09-11T01:16:23.866Z,101429.66
2023-09-11T01:19:09.577Z,101426.09
2023-09-11T01:21:58.615Z,101425.38
2023-09-11T01:24:30.962Z,101430.16
2023-09-11T01:27:27.728Z,101423.38
2023-09-11T01:29:55.110Z,101421.00
2023-09-11T01:32:25.423Z,101422.88
2023-09-11T01:34:53.119Z,101418.47
2023-09-11T01:37:19.545Z,101414.59
2023-09-11T01:39:46.075Z,101411.34
2023-09-11T01:42:19.248Z,101412.56
2023-09-11T01:44:48.157Z,101412.88
2023-09-11T01:47:19.428Z,101409.69
2023-09-11T01:49:48.458Z,101412.59
2023-09-11T01:52:16.678Z,101409.88
2023-09-11T01:54:44.288Z,101414.59
2023-09-11T01:57:11.446Z,101412.09
2023-09-11T01:59:37.997Z,101409.53
2023-09-11T02:02:04.769Z,101403.44
2023-09-11T02:04:31.459Z,101401.75
2023-09-11T02:06:58.129Z,101407.31
2023-09-11T02:09:24.922Z,101406.66
2023-09-11T02:11:51.511Z,101411.06
2023-09-11T02:14:18.095Z,101401.59
2023-09-11T02:16:44.569Z,101399.56
2023-09-11T02:19:13.871Z,101388.91
2023-09-11T02:21:40.375Z,101398.22
2023-09-11T02:24:07.168Z,101389.59
2023-09-11T02:26:33.867Z,101383.34
2023-09-11T02:29:01.139Z,101376.03
2023-09-11T02:31:28.230Z,101375.34
2023-09-11T02:33:55.050Z,101376.38
2023-09-11T02:36:21.583Z,101373.53
2023-09-11T02:38:48.441Z,101372.00
2023-09-11T02:41:15.017Z,101381.47
2023-09-11T02:43:41.547Z,101375.41
2023-09-11T02:46:09.070Z,101381.66
2023-09-11T02:48:35.674Z,101369.28
2023-09-11T02:51:02.402Z,101373.88
2023-09-11T02:53:29.131Z,101369.09
2023-09-11T02:55:55.945Z,101370.97
2023-09-11T02:58:22.564Z,101366.59
2023-09-11T03:00:49.065Z,101364.72
2023-09-11T03:03:15.546Z,101364.91
2023-09-11T03:05:42.247Z,101368.25
2023-09-11T03:08:08.999Z,101361.34
2023-09-11T03:10:35.764Z,101356.94
2023-09-11T03:13:02.808Z,101353.56
2023-09-11T03:15:35.567Z,101364.22
2023-09-11T03:18:02.170Z,101353.72
2023-09-11T03:20:28.847Z,101348.66
2023-09-11T03:22:55.343Z,101344.91
2023-09-11T03:25:21.858Z,101338.84
2023-09-11T03:27:48.572Z,101337.13
2023-09-11T03:30:15.312Z,101343.53
2023-09-11T03:32:42.226Z,101332.22
2023-09-11T03:35:09.100Z,101338.13
2023-09-11T03:37:38.316Z,101340.84
2023-09-11T03:40:08.676Z,101331.88
2023-09-11T03:42:35.411Z,101331.38
2023-09-11T03:45:02.172Z,101325.97
2023-09-11T03:47:28.961Z,101327.28
2023-09-11T03:49:55.568Z,101325.47
2023-09-11T03:52:22.073Z,101322.06
2023-09-11T03:54:48.599Z,101324.63
2023-09-11T03:57:15.274Z,101311.09
2023-09-11T03:59:42.000Z,101313.09
2023-09-11T04:02:08.964Z,101319.34
2023-09-11T04:04:35.607Z,101309.38
2023-09-11T04:07:02.426Z,101316.66
2023-09-11T04:09:32.315Z,101309.72
2023-09-11T04:12:01.126Z,101304.63
2023-09-11T04:14:27.929Z,101298.03
2023-09-11T04:16:54.714Z,101296.69
2023-09-11T04:19:21.186Z,101297.03
2023-09-11T04:21:47.723Z,101291.97
2023-09-11T04:24:14.419Z,101298.91
2023-09-11T04:26:41.686Z,101293.63
2023-09-11T04:29:12.749Z,101296.00
2023-09-11T04:31:39.887Z,101296.88
2023-09-11T04:34:06.453Z,101301.59
2023-09-11T04:36:32.907Z,101298.03
2023-09-11T04:38:59.410Z,101293.63
2023-09-11T04:41:25.973Z,101289.56
2023-09-11T04:43:52.549Z,101297.34
2023-09-11T04:46:19.261Z,101295.47
2023-09-11T04:48:46.397Z,101297.34
2023-09-11T04:51:13.232Z,101291.94
2023-09-11T04:53:40.008Z,101298.34
2023-09-11T04:56:06.727Z,101296.66
2023-09-11T04:58:33.181Z,101283.31
2023-09-11T05:01:00.053Z,101287.88
2023-09-11T05:03:27.010Z,101288.69
2023-09-11T05:05:53.613Z,101291.59
2023-09-11T05:08:20.153Z,101283.63
2023-09-11T05:10:46.708Z,101291.59
2023-09-11T05:13:13.211Z,101283.94
2023-09-11T05:15:39.934Z,101288.00
2023-09-11T05:18:06.980Z,101282.59
2023-09-11T05:20:33.630Z,101291.56
2023-09-11T05:23:05.859Z,101284.59
2023-09-11T05:25:32.689Z,101287.16
2023-09-11T05:27:59.192Z,101280.88
2023-09-11T05:30:25.732Z,101280.75
2023-09-11T05:32:53.572Z,101285.44
2023-09-11T05:35:21.514Z,101278.66
2023-09-11T05:37:48.022Z,101284.06
2023-09-11T05:40:14.555Z,101282.22
2023-09-11T05:42:41.452Z,101288.97
2023-09-11T05:45:08.243Z,101291.38
2023-09-11T05:47:35.852Z,101293.25
2023-09-11T05:50:02.518Z,101303.56
2023-09-11T05:52:29.053Z,101303.25
2023-09-11T05:54:55.720Z,101304.59
2023-09-11T05:57:22.871Z,101311.38
2023-09-11T05:59:49.411Z,101305.44
2023-09-11T06:02:15.925Z,101309.00
2023-09-11T06:04:45.468Z,101305.59
2023-09-11T06:07:13.150Z,101303.75
2023-09-11T06:09:39.569Z,101301.88
2023-09-11T06:12:07.846Z,101304.78
2023-09-11T06:14:39.468Z,101315.25
2023-09-11T06:17:06.462Z,101318.47
2023-09-11T06:19:41.319Z,101324.22
2023-09-11T06:22:13.926Z,101319.13
2023-09-11T06:24:40.564Z,101328.78
2023-09-11T06:27:08.908Z,101325.75
2023-09-11T06:29:41.654Z,101323.56
2023-09-11T06:32:08.820Z,101325.75
2023-09-11T06:34:38.852Z,101324.25
2023-09-11T06:37:07.473Z,101331.00
2023-09-11T06:39:34.426Z,101329.00
2023-09-11T06:42:04.380Z,101325.25
2023-09-11T06:44:32.354Z,101334.75
2023-09-11T06:46:59.149Z,101338.78
2023-09-11T06:49:25.815Z,101342.00
2023-09-11T06:51:52.344Z,101339.00
2023-09-11T06:54:18.946Z,101333.25
2023-09-11T06:56:45.647Z,101337.44
2023-09-11T06:59:12.365Z,101334.25
2023-09-11T07:01:41.047Z,101336.47
2023-09-11T07:04:12.715Z,101340.34
2023-09-11T07:06:40.099Z,101332.41
2023-09-11T07:09:07.772Z,101335.63
2023-09-11T07:11:34.802Z,101334.44
2023-09-11T07:14:02.442Z,101325.13
2023-09-11T07:16:28.865Z,101327.16
2023-09-11T07:18:55.586Z,101326.81
2023-09-11T07:21:25.051Z,101322.56
2023-09-11T07:23:51.764Z,101318.31
2023-09-11T07:26:18.600Z,101322.19
2023-09-11T07:28:59.352Z,101321.84
2023-09-11T07:31:26.046Z,101327.06
2023-09-11T07:33:52.790Z,101332.63
2023-09-11T07:36:20.515Z,101334.69
2023-09-11T07:38:47.854Z,101337.22
2023-09-11T07:41:23.623Z,101328.59
2023-09-11T07:43:51.491Z,101328.72
2023-09-11T07:46:23.265Z,101327.84
2023-09-11T07:48:50.996Z,101326.47
2023-09-11T07:51:17.915Z,101323.09
2023-09-11T07:53:45.787Z,101322.56
2023-09-11T07:56:14.605Z,101330.84
2023-09-11T07:58:41.844Z,101335.56
2023-09-11T08:01:08.746Z,101342.16
2023-09-11T08:03:36.417Z,101350.41
2023-09-11T08:06:11.997Z,101349.69
2023-09-11T08:08:40.750Z,101353.56
2023-09-11T08:11:36.176Z,101348.59
2023-09-11T08:14:02.764Z,101352.41
2023-09-11T08:16:31.202Z,101350.47
2023-09-11T08:18:58.026Z,101355.03
2023-09-11T08:21:24.636Z,101351.78
2023-09-11T08:23:51.477Z,101352.56
2023-09-11T08:26:18.600Z,101351.47
2023-09-11T08:28:45.140Z,101349.91
2023-09-11T08:31:11.780Z,101351.56
2023-09-11T08:33:53.850Z,101352.84
2023-09-11T08:36:21.294Z,101350.41
2023-09-11T08:38:49.048Z,101352.38
2023-09-11T08:41:16.226Z,101356.06
2023-09-11T08:43:44.086Z,101367.50
2023-09-11T08:46:15.777Z,101355.06
2023-09-11T08:48:45.937Z,101357.81
2023-09-11T08:51:19.507Z,101362.03
2023-09-11T08:53:48.867Z,101361.28
2023-09-11T08:56:15.976Z,101358.75
2023-09-11T08:58:44.100Z,101352.34
2023-09-11T09:01:11.937Z,101355.28
2023-09-11T09:03:41.482Z,101349.53
2023-09-11T09:06:08.671Z,101356.47
2023-09-11T09:08:36.476Z,101359.56
2023-09-11T09:11:03.220Z,101358.97
2023-09-11T09:13:36.803Z,101357.50
2023-09-11T09:16:03.858Z,101367.03
2023-09-11T09:18:30.988Z,101364.41
2023-09-11T09:20:57.958Z,101368.88
2023-09-11T09:23:37.600Z,101369.03
2023-09-11T09:26:08.836Z,101363.91
2023-09-11T09:28:37.119Z,101367.97
2023-09-11T09:31:04.720Z,101360.34
2023-09-11T09:33:32.327Z,101374.06
2023-09-11T09:36:00.187Z,101361.63
2023-09-11T09:38:27.761Z,101362.50
2023-09-11T09:40:56.202Z,101352.28
2023-09-11T09:43:23.370Z,101361.84
2023-09-11T09:45:49.931Z,101349.50
2023-09-11T09:48:18.679Z,101357.34
2023-09-11T09:50:59.852Z,101348.38
2023-09-11T09:53:26.801Z,101352.59
2023-09-11T09:56:05.476Z,101356.03
2023-09-11T09:58:43.432Z,101347.69
2023-09-11T10:01:14.495Z,101344.78
2023-09-11T10:03:46.026Z,101337.03
2023-09-11T10:06:28.864Z,101338.97
2023-09-11T10:09:09.666Z,101340.03
2023-09-11T10:11:37.487Z,101340.06
2023-09-11T10:14:06.634Z,101343.22
2023-09-11T10:16:33.782Z,101345.97
2023-09-11T10:19:01.781Z,101338.00
2023-09-11T10:21:29.788Z,101341.78
2023-09-11T10:23:56.791Z,101348.13
2023-09-11T10:27:04.046Z,101343.91
2023-09-11T10:29:47.623Z,101350.22
2023-09-11T10:32:24.112Z,101347.44
2023-09-11T10:34:53.153Z,101346.16
2023-09-11T10:37:22.518Z,101340.50
2023-09-11T10:42:33.390Z,101344.28
2023-09-11T10:45:00.304Z,101338.97
2023-09-11T10:47:28.565Z,101338.16
2023-09-11T10:49:58.087Z,101342.09
2023-09-11T10:52:26.184Z,101328.56
2023-09-11T10:54:52.748Z,101326.22
2023-09-11T10:57:19.419Z,101326.34
2023-09-11T10:59:46.096Z,101330.56
2023-09-11T11:02:12.812Z,101326.16
2023-09-11T11:04:40.850Z,101321.66
2023-09-11T11:07:09.078Z,101323.56
2023-09-11T11:09:39.146Z,101313.75
2023-09-11T11:12:10.040Z,101314.34
2023-09-11T11:14:37.054Z,101315.84
2023-09-11T11:17:07.447Z,101308.72
2023-09-11T11:19:41.306Z,101309.09
2023-09-11T11:22:09.905Z,101319.66
2023-09-11T11:24:53.700Z,101312.97
2023-09-11T11:27:20.332Z,101320.13
2023-09-11T11:29:48.196Z,101318.19
2023-09-11T11:32:15.559Z,101321.50
2023-09-11T11:34:42.754Z,101321.44
2023-09-11T11:37:11.941Z,101317.94
2023-09-11T11:39:38.928Z,101329.44
2023-09-11T11:42:08.064Z,101323.94
2023-09-11T11:44:36.785Z,101327.88
2023-09-11T11:47:03.676Z,101328.25
2023-09-11T11:49:30.548Z,101327.19
2023-09-11T11:52:01.756Z,101331.13
2023-09-11T11:54:28.936Z,101331.84
2023-09-11T11:56:59.479Z,101322.72
2023-09-11T11:59:32.272Z,101329.44
2023-09-11T12:01:58.890Z,101330.47
2023-09-11T12:04:45.148Z,101332.38
2023-09-11T12:07:12.358Z,101330.09
2023-09-11T12:09:42.261Z,101328.19
2023-09-11T12:12:09.579Z,101327.28
2023-09-11T12:14:38.006Z,101330.06
2023-09-11T12:17:14.524Z,101333.22
2023-09-11T12:19:41.213Z,101329.56
2023-09-11T12:22:13.316Z,101331.84
2023-09-11T12:24:42.595Z,101334.75
2023-09-11T12:27:09.492Z,101336.03
2023-09-11T12:29:36.368Z,101337.25
2023-09-11T12:32:03.229Z,101339.06
2023-09-11T12:34:46.339Z,101326.81
2023-09-11T12:37:13.405Z,101334.22
2023-09-11T12:39:40.108Z,101328.72
2023-09-11T12:42:07.054Z,101330.09
2023-09-11T12:44:33.681Z,101338.09
2023-09-11T12:47:03.635Z,101334.81
2023-09-11T12:49:30.588Z,101336.94
2023-09-11T12:51:57.086Z,101335.97
2023-09-11T12:54:25.638Z,101341.03
2023-09-11T12:56:52.294Z,101345.19
2023-09-11T12:59:18.990Z,101339.91
2023-09-11T13:01:45.585Z,101339.47
2023-09-11T13:04:12.776Z,101340.16
2023-09-11T13:06:39.536Z,101337.63
2023-09-11T13:09:06.707Z,101329.63
2023-09-11T13:11:33.567Z,101331.59
2023-09-11T13:14:13.938Z,101338.09
2023-09-11T13:16:43.532Z,101339.31
2023-09-11T13:19:10.381Z,101337.25
2023-09-11T13:21:37.179Z,101339.03
2023-09-11T13:24:04.297Z,101335.38
2023-09-11T13:26:31.078Z,101336.44
2023-09-11T13:28:57.548Z,101332.63
2023-09-11T13:31:24.355Z,101349.34
2023-09-11T13:33:51.499Z,101328.16
2023-09-11T13:36:18.289Z,101332.81
2023-09-11T13:38:45.399Z,101328.78
2023-09-11T13:41:12.162Z,101322.44
2023-09-11T13:43:41.015Z,101334.91
2023-09-11T13:46:07.911Z,101332.41
2023-09-11T13:48:34.686Z,101327.31
2023-09-11T13:51:11.769Z,101326.69
2023-09-11T13:53:41.533Z,101320.19
2023-09-11T13:56:12.345Z,101326.53
2023-09-11T13:58:46.490Z,101331.25
2023-09-11T14:01:25.038Z,101330.69
2023-09-11T14:04:04.840Z,101327.19
2023-09-11T14:06:36.960Z,101327.44
2023-09-11T14:09:23.602Z,101334.66
2023-09-11T14:11:55.051Z,101322.47
2023-09-11T14:14:44.387Z,101337.53
2023-09-11T14:17:08.918Z,101339.50
2023-09-11T14:19:52.969Z,101336.50
2023-09-11T14:22:25.174Z,101333.63
2023-09-11T14:24:51.803Z,101341.28
2023-09-11T14:27:18.588Z,101345.72
2023-09-11T14:29:49.592Z,101346.16
2023-09-11T14:32:22.719Z,101347.19
2023-09-11T14:34:56.758Z,101340.50
2023-09-11T14:37:32.525Z,101341.97
2023-09-11T14:39:59.199Z,101346.41
2023-09-11T14:42:26.081Z,101351.50
2023-09-11T14:44:52.756Z,101342.00
2023-09-11T14:47:19.736Z,101340.53
2023-09-11T14:49:48.388Z,101340.81
2023-09-11T14:52:16.905Z,101337.88
2023-09-11T14:54:55.055Z,101337.28
2023-09-11T14:57:24.377Z,101343.63
2023-09-11T14:59:54.192Z,101341.16
2023-09-11T15:02:29.951Z,101337.97
2023-09-11T15:04:56.836Z,101342.63
2023-09-11T15:07:23.497Z,101342.81
2023-09-11T15:09:50.482Z,101340.56
2023-09-11T15:12:17.514Z,101344.75
2023-09-11T15:14:45.097Z,101352.53
2023-09-11T15:17:11.974Z,101365.94
2023-09-11T15:19:39.356Z,101374.56
2023-09-11T15:22:06.198Z,101373.72
2023-09-11T15:24:32.937Z,101370.53
2023-09-11T15:26:59.777Z,101370.72
2023-09-11T15:29:26.631Z,101375.72
2023-09-11T15:32:09.673Z,101373.03
2023-09-11T15:34:40.310Z,101380.81
2023-09-11T15:37:15.747Z,101380.38
2023-09-11T15:39:43.479Z,101387.03
2023-09-11T15:42:10.561Z,101379.44
2023-09-11T15:44:37.042Z,101377.13
2023-09-11T15:47:03.629Z,101394.09
2023-09-11T15:49:30.083Z,101389.84
2023-09-11T15:51:56.629Z,101383.75
2023-09-11T15:54:26.159Z,101383.91
2023-09-11T15:56:55.783Z,101386.41
2023-09-11T15:59:22.760Z,101385.09
2023-09-11T16:01:49.276Z,101389.22
2023-09-11T16:04:15.984Z,101393.50
2023-09-11T16:06:43.501Z,101387.03
2023-09-11T16:09:10.240Z,101389.91
2023-09-11T16:11:36.856Z,101383.63
2023-09-11T16:14:03.456Z,101382.16
2023-09-11T16:16:30.506Z,101387.22
2023-09-11T16:18:57.494Z,101382.72
2023-09-11T16:21:37.449Z,101382.16
2023-09-11T16:24:06.196Z,101380.00
2023-09-11T16:26:32.772Z,101379.28
2023-09-11T16:28:59.528Z,101377.81
2023-09-11T16:31:26.371Z,101371.25
2023-09-11T16:33:54.037Z,101376.03
2023-09-11T16:36:22.441Z,101364.22
2023-09-11T16:38:49.577Z,101364.69
2023-09-11T16:41:16.738Z,101362.50
2023-09-11T16:43:43.462Z,101355.97
2023-09-11T16:46:11.486Z,101349.97
2023-09-11T16:48:38.334Z,101344.97
2023-09-11T16:51:04.998Z,101341.84
2023-09-11T16:53:31.517Z,101339.31
2023-09-11T16:55:57.950Z,101343.06
2023-09-11T16:58:24.573Z,101342.91
2023-09-11T17:00:51.256Z,101339.78
2023-09-11T17:03:18.008Z,101327.66
2023-09-11T17:05:44.590Z,101312.56
2023-09-11T17:08:11.262Z,101293.69
2023-09-11T17:10:37.801Z,101272.81
2023-09-11T17:13:04.318Z,101286.09
2023-09-11T17:15:30.917Z,101287.41
2023-09-11T17:17:58.077Z,101277.38
2023-09-11T17:20:24.777Z,101278.59
2023-09-11T17:22:51.309Z,101283.75
2023-09-11T17:25:20.837Z,101288.75
2023-09-11T17:27:47.481Z,101288.50
2023-09-11T17:30:14.468Z,101298.28
2023-09-11T17:32:41.243Z,101308.25
2023-09-11T17:35:08.254Z,101313.41
2023-09-11T17:37:34.817Z,101314.81
2023-09-11T17:40:01.787Z,101317.19
2023-09-11T17:42:28.688Z,101325.75
2023-09-11T17:44:55.369Z,101328.75
2023-09-11T17:47:23.008Z,101329.03
2023-09-11T17:49:49.828Z,101327.75
2023-09-11T17:52:16.562Z,101327.66
2023-09-11T17:54:43.194Z,101329.59
2023-09-11T17:57:09.977Z,101334.63
2023-09-11T17:59:36.693Z,101335.50
2023-09-11T18:02:04.194Z,101341.78
2023-09-11T18:04:32.354Z,101340.56
2023-09-11T18:07:09.960Z,101354.78
2023-09-11T18:09:37.728Z,101356.91
2023-09-11T18:12:04.982Z,101359.00
2023-09-11T18:14:31.654Z,101368.09
2023-09-11T18:16:58.136Z,101366.59
2023-09-11T18:19:24.635Z,101369.31
2023-09-11T18:21:56.093Z,101362.22
2023-09-11T18:24:22.837Z,101364.34
2023-09-11T18:26:49.550Z,101370.75
2023-09-11T18:29:18.054Z,101370.75
2023-09-11T18:31:45.411Z,101363.72
2023-09-11T18:34:12.864Z,101376.81
2023-09-11T18:36:39.909Z,101372.25
2023-09-11T18:39:07.157Z,101375.22
2023-09-11T18:41:34.359Z,101373.84
2023-09-11T18:44:02.501Z,101372.72
2023-09-11T18:46:30.076Z,101387.25
2023-09-11T18:48:58.661Z,101371.41
2023-09-11T18:51:25.703Z,101381.06
2023-09-11T18:53:52.345Z,101374.69
2023-09-11T18:56:19.114Z,101383.00
2023-09-11T18:58:46.027Z,101386.13
2023-09-11T19:01:15.123Z,101392.22
2023-09-11T19:03:41.771Z,101388.00
2023-09-11T19:06:09.954Z,101388.28
2023-09-11T19:08:36.703Z,101388.28
2023-09-11T19:11:03.358Z,101385.56
2023-09-11T19:13:29.941Z,101386.13
2023-09-11T19:15:56.545Z,101404.69
2023-09-11T19:18:26.247Z,101409.91
2023-09-11T19:20:52.972Z,101412.16
2023-09-11T19:23:19.665Z,101403.16
2023-09-11T19:25:46.384Z,101396.69
2023-09-11T19:28:13.053Z,101400.28
2023-09-11T19:30:39.619Z,101393.97
2023-09-11T19:33:06.274Z,101402.25
2023-09-11T19:35:32.780Z,101406.91
2023-09-11T19:37:59.581Z,101404.69
2023-09-11T19:40:26.289Z,101400.94
2023-09-11T19:42:52.785Z,101402.56
2023-09-11T19:45:20.046Z,101411.78
2023-09-11T19:47:46.985Z,101410.47
2023-09-11T19:50:14.875Z,101422.38
2023-09-11T19:52:41.812Z,101418.31
2023-09-11T19:55:08.435Z,101418.88
2023-09-11T19:57:36.592Z,101421.22
2023-09-11T20:00:03.803Z,101417.09
2023-09-11T20:02:30.795Z,101419.66
2023-09-11T20:04:58.425Z,101408.13
2023-09-11T20:07:28.152Z,101405.88
2023-09-11T20:09:56.814Z,101400.34
2023-09-11T20:12:28.100Z,101395.63
2023-09-11T20:14:57.166Z,101392.44
2023-09-11T20:17:23.717Z,101389.22
2023-09-11T20:19:50.249Z,101384.25
2023-09-11T20:22:19.104Z,101379.22
2023-09-11T20:24:46.509Z,101370.78
2023-09-11T20:29:39.985Z,101365.28
2023-09-11T20:32:08.361Z,101368.84
2023-09-11T20:34:34.956Z,101373.97
2023-09-11T20:37:01.671Z,101386.53
2023-09-11T20:39:28.507Z,101385.66
2023-09-11T20:41:55.149Z,101391.81
2023-09-11T20:44:21.866Z,101386.09
2023-09-11T20:46:48.585Z,101384.72
2023-09-11T20:49:15.093Z,101382.72
2023-09-11T20:51:41.776Z,101401.72
2023-09-11T20:54:10.302Z,101399.56
2023-09-11T20:56:37.583Z,101407.19
2023-09-11T20:59:04.203Z,101409.78
2023-09-11T21:01:31.561Z,101419.16
2023-09-11T21:03:58.499Z,101432.41
2023-09-11T21:06:25.655Z,101447.16
2023-09-11T21:08:52.404Z,101450.59
2023-09-11T21:11:24.169Z,101458.03
2023-09-11T21:13:51.104Z,101451.44
2023-09-11T21:16:17.691Z,101451.25
2023-09-11T21:18:44.486Z,101451.44
2023-09-11T21:21:11.561Z,101463.34
2023-09-11T21:23:40.124Z,101468.97
2023-09-11T21:26:06.941Z,101472.03
2023-09-11T21:28:33.574Z,101444.56
2023-09-11T21:31:00.314Z,101432.53
2023-09-11T21:33:28.172Z,101433.38
2023-09-11T21:35:55.196Z,101437.28
2023-09-11T21:38:21.744Z,101434.25
2023-09-11T21:40:48.285Z,101430.38
2023-09-11T21:43:14.957Z,101423.94
2023-09-11T21:45:45.409Z,101420.91
2023-09-11T21:48:12.561Z,101417.66
2023-09-11T21:50:39.696Z,101412.59
2023-09-11T21:53:06.645Z,101417.50
2023-09-11T21:55:33.932Z,101422.09
2023-09-11T21:58:00.656Z,101432.56
2023-09-11T22:00:27.448Z,101431.91
2023-09-11T22:02:54.177Z,101423.09
2023-09-11T22:05:20.815Z,101421.06
2023-09-11T22:07:47.492Z,101429.19
2023-09-11T22:10:14.158Z,101412.59
2023-09-11T22:12:40.747Z,101410.91
2023-09-11T22:15:07.869Z,101413.28
2023-09-11T22:17:34.539Z,101422.78
2023-09-11T22:20:03.525Z,101429.03
2023-09-11T22:22:30.375Z,101440.38
2023-09-11T22:24:56.917Z,101447.47
2023-09-11T22:27:24.145Z,101453.06
2023-09-11T22:29:51.025Z,101445.63
2023-09-11T22:32:17.793Z,101452.88
2023-09-11T22:34:44.586Z,101446.78
2023-09-11T22:37:11.237Z,101452.22
2023-09-11T22:39:37.780Z,101423.06
2023-09-11T22:42:04.807Z,101409.75
2023-09-11T22:44:33.347Z,101405.13
2023-09-11T22:47:01.907Z,101397.03
2023-09-11T22:49:29.205Z,101380.97
2023-09-11T22:51:55.800Z,101371.50
2023-09-11T22:54:23.476Z,101369.78
2023-09-11T22:56:50.371Z,101359.50
2023-09-11T22:59:16.859Z,101380.13
2023-09-11T23:01:43.589Z,101385.84
2023-09-11T23:04:11.238Z,101373.16
2023-09-11T23:06:38.856Z,101365.53
2023-09-11T23:09:06.033Z,101360.13
2023-09-11T23:11:32.675Z,101362.34
2023-09-11T23:13:59.367Z,101363.66
2023-09-11T23:16:26.570Z,101353.34
2023-09-11T23:18:54.507Z,101353.34
2023-09-11T23:21:21.371Z,101352.00
2023-09-11T23:23:49.421Z,101366.50
2023-09-11T23:26:16.307Z,101379.63
2023-09-11T23:28:43.357Z,101383.53
2023-09-11T23:31:10.720Z,101374.78
2023-09-11T23:33:37.489Z,101374.47
2023-09-11T23:36:04.636Z,101375.66
2023-09-11T23:38:31.403Z,101378.03
2023-09-11T23:40:57.896Z,101379.22
2023-09-11T23:43:33.168Z,101380.41
2023-09-11T23:45:59.695Z,101385.44
2023-09-11T23:48:26.397Z,101389.19
2023-09-11T23:50:52.912Z,101386.13
2023-09-11T23:53:19.377Z,101387.16
2023-09-11T23:55:46.022Z,101393.03
2023-09-11T23:58:12.566Z,101385.59
